Boulder Muni, Boulder, CO, CO

2:59 PM MDT on September 23, 2017 (GMT -0600)
Boulder Muni, Boulder, CO

Weather History for KBDU - August, 2013

Change the Weather History Date:

Sunday, August 25, 2013

  Actual Average Record
Temperature  
Mean Temperature 74 °F -  
Max Temperature 87 °F - 95 °F (2015)
Min Temperature 60 °F - 48 °F (2016)
Degree Days  
Heating Degree Days 0    
Month to date heating degree days  
Cooling Degree Days 8    
Month to date cooling degree days  
Growing Degree Days 24 (Base 50)    
Moisture  
Dew Point 47 °F    
Average Humidity 41    
Maximum Humidity 72    
Minimum Humidity 20    
Precipitation  
Precipitation 0.00 in - 0.02 in (2014)
Sea Level Pressure  
Sea Level Pressure 30.17 in    
Wind  
Wind Speed 4 mph (SSW)    
Max Wind Speed 17 mph    
Max Gust Speed 29 mph    
Visibility 10 miles    
Events Rain , Thunderstorm    
T = Trace of Precipitation, MM = Missing Value Source: NWS Daily Summary

Daily Weather History Graph

Daily Weather History Graph

Search for Another Location

Airport or City:

Trip Planner

Search our weather history database for the weather conditions in past years. The results will help you decide how hot, cold, wet, or windy it might be!

Date:

Astronomy

Aug. 25, 2013 Rise Set
Actual Time 6:22 AM MDT 7:42 PM MDT
Civil Twilight 5:54 AM MDT 8:10 PM MDT
Nautical Twilight 5:20 AM MDT 8:44 PM MDT
Astronomical Twilight 4:44 AM MDT 9:20 PM MDT
Moon 10:15 PM MDT (8/25) 11:26 AM MDT (8/25)
Length of Visible Light 14h 16m
Length of Day
13h 20m
Waning Gibbous, 75% of the Moon is Illuminated
Aug 25
Waning Gibbous
Aug 28
Last Quarter
Sep 5
New
Sep 12
First Quarter
Sep 19
Full

Hourly Weather History & Observations

Time (MDT) Temp. Dew Point Humidity Pressure Visibility Wind Dir Wind Speed Gust Speed Precip Events Conditions
12:17 AM 71.6 °F 44.6 °F 38% 30.14 in 10.0 mi SSW 5.8 mph - N/A   Clear
12:37 AM 69.8 °F 44.6 °F 40% 30.15 in 10.0 mi South 5.8 mph - N/A   Clear
12:57 AM 68.0 °F 46.4 °F 46% 30.15 in 10.0 mi WSW 6.9 mph - N/A   Clear
1:17 AM 68.0 °F 46.4 °F 46% 30.15 in 10.0 mi SSW 4.6 mph - N/A   Clear
1:37 AM 68.0 °F 44.6 °F 43% 30.14 in 10.0 mi SW 4.6 mph - N/A   Clear
1:57 AM 68.0 °F 44.6 °F 43% 30.14 in 10.0 mi Calm Calm - N/A   Clear
2:17 AM 69.8 °F 44.6 °F 40% 30.14 in 10.0 mi SW 6.9 mph - N/A   Clear
2:37 AM 68.0 °F 42.8 °F 40% 30.14 in 10.0 mi SW 8.1 mph - N/A   Clear
2:57 AM 69.8 °F 42.8 °F 38% 30.14 in 10.0 mi WSW 6.9 mph - N/A   Clear
3:17 AM 66.2 °F 46.4 °F 49% 30.15 in 10.0 mi South 4.6 mph - N/A   Clear
3:37 AM 66.2 °F 46.4 °F 49% 30.15 in 10.0 mi SSW 4.6 mph - N/A   Clear
3:57 AM 66.2 °F 44.6 °F 46% 30.14 in 10.0 mi Calm Calm - N/A   Clear
4:17 AM 64.4 °F 46.4 °F 52% 30.15 in 10.0 mi Calm Calm - N/A   Clear
4:37 AM 60.8 °F 50.0 °F 68% 30.15 in 10.0 mi NNE 3.5 mph - N/A   Clear
4:57 AM 60.8 °F 51.8 °F 72% 30.15 in 10.0 mi NW 3.5 mph - N/A   Clear
5:17 AM 60.8 °F 51.8 °F 72% 30.16 in 10.0 mi Calm Calm - N/A   Clear
5:37 AM 60.8 °F 50.0 °F 68% 30.16 in 10.0 mi Calm Calm - N/A   Clear
5:57 AM 62.6 °F 50.0 °F 63% 30.16 in 10.0 mi Calm Calm - N/A   Clear
6:17 AM 60.8 °F 51.8 °F 72% 30.17 in 10.0 mi Calm Calm - N/A   Clear
6:37 AM 60.8 °F 51.8 °F 72% 30.18 in 10.0 mi Calm Calm - N/A   Clear
6:57 AM 60.8 °F 51.8 °F 72% 30.18 in 10.0 mi Calm Calm - N/A   Clear
7:17 AM 62.6 °F 53.6 °F 72% 30.18 in 10.0 mi Calm Calm - N/A   Clear
7:37 AM 64.4 °F 50.0 °F 59% 30.18 in 10.0 mi Calm Calm - N/A   Clear
7:57 AM 66.2 °F 53.6 °F 64% 30.18 in 10.0 mi Calm Calm - N/A   Clear
8:17 AM 68.0 °F 51.8 °F 56% 30.18 in 10.0 mi ESE 3.5 mph - N/A   Clear
8:37 AM 69.8 °F 51.8 °F 53% 30.19 in 10.0 mi Calm Calm - N/A   Clear
8:57 AM 71.6 °F 48.2 °F 43% 30.19 in 10.0 mi Calm Calm - N/A   Clear
9:17 AM 73.4 °F 48.2 °F 41% 30.20 in 10.0 mi Calm Calm - N/A   Clear
9:37 AM 73.4 °F 46.4 °F 38% 30.20 in 10.0 mi Calm Calm - N/A   Clear
9:57 AM 75.2 °F 46.4 °F 36% 30.21 in 10.0 mi Calm Calm - N/A   Clear
10:17 AM 75.2 °F 46.4 °F 36% 30.20 in 10.0 mi Calm Calm - N/A   Clear
10:37 AM 77.0 °F 44.6 °F 32% 30.21 in 10.0 mi Calm Calm - N/A   Clear
10:57 AM 78.8 °F 44.6 °F 30% 30.20 in 10.0 mi Calm Calm - N/A   Clear
11:17 AM 80.6 °F 46.4 °F 30% 30.20 in 10.0 mi Calm Calm - N/A   Clear
11:37 AM 80.6 °F 44.6 °F 28% 30.20 in 10.0 mi North 4.6 mph - N/A   Clear
11:57 AM 82.4 °F 46.4 °F 28% 30.20 in 10.0 mi Calm Calm - N/A   Clear
12:17 PM 82.4 °F 46.4 °F 28% 30.19 in 10.0 mi East 4.6 mph - N/A   Clear
12:37 PM 82.4 °F 46.4 °F 28% 30.18 in 10.0 mi SE 3.5 mph - N/A   Clear
12:57 PM 84.2 °F 46.4 °F 27% 30.18 in 10.0 mi Calm Calm - N/A   Clear
1:17 PM 82.4 °F 44.6 °F 26% 30.18 in 10.0 mi Calm Calm - N/A   Clear
1:37 PM 82.4 °F 46.4 °F 28% 30.17 in 10.0 mi SE 3.5 mph - N/A   Clear
1:57 PM 84.2 °F 44.6 °F 25% 30.17 in 10.0 mi Calm Calm - N/A   Clear
2:17 PM 86.0 °F 42.8 °F 22% 30.16 in 10.0 mi SE 5.8 mph - N/A   Clear
2:37 PM 87.8 °F 44.6 °F 22% 30.15 in 10.0 mi SSE 3.5 mph - N/A   Clear
2:57 PM 87.8 °F 42.8 °F 21% 30.15 in 10.0 mi SE 3.5 mph - N/A   Clear
3:17 PM 87.8 °F 42.8 °F 21% 30.14 in 10.0 mi SE 3.5 mph - N/A   Clear
3:37 PM 87.8 °F 42.8 °F 21% 30.14 in 10.0 mi Calm Calm - N/A   Clear
3:57 PM 86.0 °F 41.0 °F 20% 30.14 in 10.0 mi Calm Calm - N/A   Clear
4:17 PM 86.0 °F 41.0 °F 20% 30.13 in 10.0 mi NW 3.5 mph - N/A   Clear
4:37 PM 86.0 °F 41.0 °F 20% 30.13 in 10.0 mi Calm Calm - N/A   Clear
4:57 PM 84.2 °F 41.0 °F 22% 30.13 in 10.0 mi Calm Calm - N/A Thunderstorm Clear
5:17 PM 82.4 °F 44.6 °F 26% 30.14 in 10.0 mi WSW 10.4 mph - N/A   Scattered Clouds
5:37 PM 80.6 °F 46.4 °F 30% 30.15 in 10.0 mi WSW 17.3 mph 28.8 mph N/A   Mostly Cloudy
5:57 PM 77.0 °F 50.0 °F 39% 30.16 in 10.0 mi WSW 13.8 mph 18.4 mph N/A   Mostly Cloudy
6:17 PM 77.0 °F 48.2 °F 36% 30.15 in 10.0 mi West 13.8 mph - N/A   Overcast
6:37 PM 77.0 °F 48.2 °F 36% 30.14 in 10.0 mi West 13.8 mph 17.3 mph N/A Rain Light Rain
6:57 PM 78.8 °F 46.4 °F 32% 30.14 in 10.0 mi WSW 8.1 mph - N/A   Mostly Cloudy
7:17 PM 78.8 °F 48.2 °F 34% 30.14 in 10.0 mi WSW 8.1 mph - N/A   Mostly Cloudy
7:37 PM 77.0 °F 48.2 °F 36% 30.15 in 10.0 mi WSW 9.2 mph - N/A   Mostly Cloudy
7:57 PM 78.8 °F 48.2 °F 34% 30.15 in 10.0 mi WSW 10.4 mph 17.3 mph N/A   Mostly Cloudy
8:17 PM 78.8 °F 48.2 °F 34% 30.15 in 10.0 mi WSW 10.4 mph 18.4 mph N/A   Mostly Cloudy
8:37 PM 77.0 °F 50.0 °F 39% 30.16 in 10.0 mi WSW 10.4 mph - N/A   Mostly Cloudy
8:57 PM 77.0 °F 50.0 °F 39% 30.16 in 10.0 mi WSW 9.2 mph - N/A   Scattered Clouds
9:17 PM 77.0 °F 48.2 °F 36% 30.17 in 10.0 mi SSW 6.9 mph - N/A   Clear
9:37 PM 73.4 °F 50.0 °F 44% 30.18 in 10.0 mi ESE 4.6 mph - N/A   Clear
9:57 PM 73.4 °F 50.0 °F 44% 30.20 in 10.0 mi ENE 5.8 mph - N/A   Scattered Clouds
10:17 PM 73.4 °F 51.8 °F 47% 30.19 in 10.0 mi NE 3.5 mph - N/A   Scattered Clouds
10:37 PM 71.6 °F 51.8 °F 50% 30.20 in 10.0 mi Calm Calm - N/A   Clear
10:57 PM 71.6 °F 51.8 °F 50% 30.20 in 10.0 mi Calm Calm - N/A   Scattered Clouds
11:17 PM 71.6 °F 51.8 °F 50% 30.20 in 10.0 mi Calm Calm - N/A   Clear
11:37 PM 71.6 °F 51.8 °F 50% 30.20 in 10.0 mi Calm Calm - N/A   Clear
11:57 PM 69.8 °F 51.8 °F 53% 30.19 in 10.0 mi Calm Calm - N/A   Clear